sensor_id;sensor_type;location;lat;lon;timestamp;pressure;altitude;pressure_sealevel;temperature;humidity
50550;BME280;36505;52.512;13.460;2022-08-21T00:02:02;101033.72;;;19.71;82.76
50550;BME280;36505;52.512;13.460;2022-08-21T00:04:29;100961.78;;;19.27;82.46
50550;BME280;36505;52.512;13.460;2022-08-21T00:06:56;100989.91;;;19.45;82.57
50550;BME280;36505;52.512;13.460;2022-08-21T00:09:22;101020.50;;;19.63;81.84
50550;BME280;36505;52.512;13.460;2022-08-21T00:11:48;101017.19;;;19.61;81.99
50550;BME280;36505;52.512;13.460;2022-08-21T00:14:18;100996.25;;;19.45;82.46
50550;BME280;36505;52.512;13.460;2022-08-21T00:16:44;100972.88;;;19.27;82.63
50550;BME280;36505;52.512;13.460;2022-08-21T00:19:10;101014.03;;;19.49;82.65
50550;BME280;36505;52.512;13.460;2022-08-21T00:21:37;100991.38;;;19.37;82.28
50550;BME280;36505;52.512;13.460;2022-08-21T00:24:03;100981.59;;;19.40;82.27
50550;BME280;36505;52.512;13.460;2022-08-21T00:26:29;100982.16;;;19.42;82.09
50550;BME280;36505;52.512;13.460;2022-08-21T00:28:54;100985.75;;;19.42;82.22
50550;BME280;36505;52.512;13.460;2022-08-21T00:31:19;100963.44;;;19.28;82.29
50550;BME280;36505;52.512;13.460;2022-08-21T00:33:45;100981.69;;;19.34;82.29
50550;BME280;36505;52.512;13.460;2022-08-21T00:36:13;101018.66;;;19.54;82.21
50550;BME280;36505;52.512;13.460;2022-08-21T00:38:38;100986.47;;;19.29;82.85
50550;BME280;36505;52.512;13.460;2022-08-21T00:41:06;101028.13;;;19.53;83.19
50550;BME280;36505;52.512;13.460;2022-08-21T00:43:34;100997.22;;;19.36;82.74
50550;BME280;36505;52.512;13.460;2022-08-21T01:13:43;101016.88;;;19.39;81.79
50550;BME280;36505;52.512;13.460;2022-08-21T01:16:14;101016.03;;;19.39;81.89
50550;BME280;36505;52.512;13.460;2022-08-21T01:18:40;101027.69;;;19.41;82.10
50550;BME280;36505;52.512;13.460;2022-08-21T01:21:07;101029.09;;;19.38;82.25
50550;BME280;36505;52.512;13.460;2022-08-21T01:23:35;101027.47;;;19.37;82.24
50550;BME280;36505;52.512;13.460;2022-08-21T01:26:01;101031.38;;;19.36;82.27
50550;BME280;36505;52.512;13.460;2022-08-21T01:28:28;101024.16;;;19.35;82.21
50550;BME280;36505;52.512;13.460;2022-08-21T01:30:57;101027.22;;;19.33;81.83
50550;BME280;36505;52.512;13.460;2022-08-21T01:33:24;101032.78;;;19.33;81.51
50550;BME280;36505;52.512;13.460;2022-08-21T01:35:49;101028.34;;;19.32;80.66
50550;BME280;36505;52.512;13.460;2022-08-21T01:38:15;101034.50;;;19.29;80.17
50550;BME280;36505;52.512;13.460;2022-08-21T01:40:40;101043.13;;;19.28;79.73
50550;BME280;36505;52.512;13.460;2022-08-21T01:43:06;101027.59;;;19.27;79.84
50550;BME280;36505;52.512;13.460;2022-08-21T01:45:31;101027.88;;;19.25;79.29
50550;BME280;36505;52.512;13.460;2022-08-21T01:47:57;101037.63;;;19.23;79.58
50550;BME280;36505;52.512;13.460;2022-08-21T01:50:22;101041.81;;;19.20;79.41
50550;BME280;36505;52.512;13.460;2022-08-21T01:52:49;101028.00;;;19.15;79.49
50550;BME280;36505;52.512;13.460;2022-08-21T01:55:16;101028.00;;;19.15;79.79
50550;BME280;36505;52.512;13.460;2022-08-21T01:57:43;101031.59;;;19.16;79.56
50550;BME280;36505;52.512;13.460;2022-08-21T02:00:11;101039.41;;;19.14;80.26
50550;BME280;36505;52.512;13.460;2022-08-21T02:02:38;101032.25;;;19.08;80.20
50550;BME280;36505;52.512;13.460;2022-08-21T02:05:05;101043.06;;;19.09;79.79
50550;BME280;36505;52.512;13.460;2022-08-21T02:07:42;101039.53;;;19.04;79.82
50550;BME280;36505;52.512;13.460;2022-08-21T02:10:10;101036.19;;;19.02;79.66
50550;BME280;36505;52.512;13.460;2022-08-21T02:12:36;101042.03;;;19.00;79.62
50550;BME280;36505;52.512;13.460;2022-08-21T02:15:04;101043.97;;;19.00;79.67
50550;BME280;36505;52.512;13.460;2022-08-21T02:17:51;101033.47;;;18.97;79.42
50550;BME280;36505;52.512;13.460;2022-08-21T02:20:33;101032.13;;;18.94;79.47
50550;BME280;36505;52.512;13.460;2022-08-21T02:23:00;101032.16;;;18.89;79.33
50550;BME280;36505;52.512;13.460;2022-08-21T02:25:26;101031.91;;;18.85;79.47
50550;BME280;36505;52.512;13.460;2022-08-21T02:27:52;101034.41;;;18.87;79.76
50550;BME280;36505;52.512;13.460;2022-08-21T02:30:24;101038.91;;;18.83;79.70
50550;BME280;36505;52.512;13.460;2022-08-21T02:32:50;101043.91;;;18.81;79.51
50550;BME280;36505;52.512;13.460;2022-08-21T02:35:16;101036.16;;;18.78;79.27
50550;BME280;36505;52.512;13.460;2022-08-21T02:37:44;101043.94;;;18.76;79.41
50550;BME280;36505;52.512;13.460;2022-08-21T02:40:10;101038.97;;;18.73;79.36
50550;BME280;36505;52.512;13.460;2022-08-21T02:42:36;101039.53;;;18.70;79.10
50550;BME280;36505;52.512;13.460;2022-08-21T02:45:03;101030.44;;;18.69;79.34
50550;BME280;36505;52.512;13.460;2022-08-21T02:47:28;101039.84;;;18.68;79.26
50550;BME280;36505;52.512;13.460;2022-08-21T02:49:53;101034.31;;;18.68;78.94
50550;BME280;36505;52.512;13.460;2022-08-21T02:52:19;101038.47;;;18.66;79.11
50550;BME280;36505;52.512;13.460;2022-08-21T02:54:44;101040.72;;;18.64;79.43
50550;BME280;36505;52.512;13.460;2022-08-21T02:57:09;101034.66;;;18.62;78.69
50550;BME280;36505;52.512;13.460;2022-08-21T02:59:35;101032.16;;;18.60;79.04
50550;BME280;36505;52.512;13.460;2022-08-21T03:02:00;101036.34;;;18.52;78.49
50550;BME280;36505;52.512;13.460;2022-08-21T03:04:26;101044.94;;;18.56;78.52
50550;BME280;36505;52.512;13.460;2022-08-21T03:06:51;101034.94;;;18.55;77.91
50550;BME280;36505;52.512;13.460;2022-08-21T03:09:16;101041.63;;;18.54;77.17
50550;BME280;36505;52.512;13.460;2022-08-21T03:11:42;101037.72;;;18.55;77.42
50550;BME280;36505;52.512;13.460;2022-08-21T03:14:07;101035.25;;;18.53;76.97
50550;BME280;36505;52.512;13.460;2022-08-21T03:16:33;101038.28;;;18.52;76.93
50550;BME280;36505;52.512;13.460;2022-08-21T03:18:58;101040.84;;;18.48;76.66
50550;BME280;36505;52.512;13.460;2022-08-21T03:21:24;101033.91;;;18.46;76.92
50550;BME280;36505;52.512;13.460;2022-08-21T03:23:50;101034.19;;;18.44;77.16
50550;BME280;36505;52.512;13.460;2022-08-21T03:26:15;101028.69;;;18.39;76.76
50550;BME280;36505;52.512;13.460;2022-08-21T03:28:40;101035.91;;;18.40;76.49
50550;BME280;36505;52.512;13.460;2022-08-21T03:31:06;101030.63;;;18.39;76.86
50550;BME280;36505;52.512;13.460;2022-08-21T03:33:31;101032.59;;;18.38;76.59
50550;BME280;36505;52.512;13.460;2022-08-21T03:36:05;101032.34;;;18.35;76.46
50550;BME280;36505;52.512;13.460;2022-08-21T03:38:32;101035.97;;;18.30;76.50
50550;BME280;36505;52.512;13.460;2022-08-21T03:40:58;101033.19;;;18.30;76.46
50550;BME280;36505;52.512;13.460;2022-08-21T03:43:23;101030.19;;;18.27;76.62
50550;BME280;36505;52.512;13.460;2022-08-21T03:45:49;101030.47;;;18.25;76.26
50550;BME280;36505;52.512;13.460;2022-08-21T03:48:14;101022.47;;;18.19;76.58
50550;BME280;36505;52.512;13.460;2022-08-21T03:50:41;101030.50;;;18.20;76.60
50550;BME280;36505;52.512;13.460;2022-08-21T03:53:09;101030.25;;;18.16;76.34
50550;BME280;36505;52.512;13.460;2022-08-21T03:55:35;101031.34;;;18.15;76.64
50550;BME280;36505;52.512;13.460;2022-08-21T03:58:00;101037.22;;;18.14;76.17
50550;BME280;36505;52.512;13.460;2022-08-21T04:00:26;101045.81;;;18.12;76.18
50550;BME280;36505;52.512;13.460;2022-08-21T04:02:52;101035.59;;;18.08;75.89
50550;BME280;36505;52.512;13.460;2022-08-21T04:05:18;101038.38;;;18.08;76.21
50550;BME280;36505;52.512;13.460;2022-08-21T04:07:53;101047.19;;;18.10;76.60
50550;BME280;36505;52.512;13.460;2022-08-21T04:10:19;101054.44;;;18.06;76.42
50550;BME280;36505;52.512;13.460;2022-08-21T04:12:45;101045.56;;;18.04;76.24
50550;BME280;36505;52.512;13.460;2022-08-21T04:15:10;101048.34;;;18.04;76.19
50550;BME280;36505;52.512;13.460;2022-08-21T04:17:36;101063.31;;;18.03;76.50
50550;BME280;36505;52.512;13.460;2022-08-21T04:20:01;101046.72;;;17.98;76.63
50550;BME280;36505;52.512;13.460;2022-08-21T04:22:27;101060.03;;;18.01;76.48
50550;BME280;36505;52.512;13.460;2022-08-21T04:24:52;101052.53;;;18.01;76.12
50550;BME280;36505;52.512;13.460;2022-08-21T04:27:17;101052.81;;;18.00;76.54
50550;BME280;36505;52.512;13.460;2022-08-21T04:29:43;101051.16;;;17.99;76.29
50550;BME280;36505;52.512;13.460;2022-08-21T04:32:08;101050.31;;;17.98;76.41
50550;BME280;36505;52.512;13.460;2022-08-21T04:34:33;101051.16;;;17.99;75.80
50550;BME280;36505;52.512;13.460;2022-08-21T04:36:59;101051.44;;;17.97;75.61
50550;BME280;36505;52.512;13.460;2022-08-21T04:39:24;101047.28;;;18.00;74.96
50550;BME280;36505;52.512;13.460;2022-08-21T04:41:49;101053.09;;;17.98;74.98
50550;BME280;36505;52.512;13.460;2022-08-21T04:44:15;101055.59;;;18.00;75.14
50550;BME280;36505;52.512;13.460;2022-08-21T04:46:40;101045.34;;;17.95;74.77
50550;BME280;36505;52.512;13.460;2022-08-21T04:49:06;101050.56;;;18.02;74.70
50550;BME280;36505;52.512;13.460;2022-08-21T04:51:34;101049.47;;;18.03;74.62
50550;BME280;36505;52.512;13.460;2022-08-21T04:56:35;101059.44;;;18.04;75.00
50550;BME280;36505;52.512;13.460;2022-08-21T04:59:04;101050.00;;;18.05;74.50
50550;BME280;36505;52.512;13.460;2022-08-21T05:01:34;101051.66;;;18.06;74.17
50550;BME280;36505;52.512;13.460;2022-08-21T05:04:00;101050.56;;;18.07;74.10
50550;BME280;36505;52.512;13.460;2022-08-21T05:06:28;101058.56;;;18.08;74.12
50550;BME280;36505;52.512;13.460;2022-08-21T05:08:56;101055.00;;;18.08;73.84
50550;BME280;36505;52.512;13.460;2022-08-21T05:11:23;101058.56;;;18.08;73.80
50550;BME280;36505;52.512;13.460;2022-08-21T05:13:49;101052.75;;;18.10;73.98
50550;BME280;36505;52.512;13.460;2022-08-21T05:16:14;101049.97;;;18.10;73.94
50550;BME280;36505;52.512;13.460;2022-08-21T05:18:41;101060.22;;;18.14;73.88
50550;BME280;36505;52.512;13.460;2022-08-21T05:21:07;101059.06;;;18.15;73.64
50550;BME280;36505;52.512;13.460;2022-08-21T05:23:32;101063.50;;;18.16;73.31
50550;BME280;36505;52.512;13.460;2022-08-21T05:25:58;101072.38;;;18.19;73.28
50550;BME280;36505;52.512;13.460;2022-08-21T05:28:24;101074.84;;;18.20;73.07
50550;BME280;36505;52.512;13.460;2022-08-21T05:30:50;101070.66;;;18.23;72.90
50550;BME280;36505;52.512;13.460;2022-08-21T05:33:16;101074.81;;;18.25;72.94
50550;BME280;36505;52.512;13.460;2022-08-21T05:35:41;101077.81;;;18.29;72.92
50550;BME280;36505;52.512;13.460;2022-08-21T05:38:07;101054.91;;;18.18;72.87
50550;BME280;36505;52.512;13.460;2022-08-21T05:40:33;101077.53;;;18.30;72.65
50550;BME280;36505;52.512;13.460;2022-08-21T05:42:59;101084.19;;;18.34;72.66
50550;BME280;36505;52.512;13.460;2022-08-21T05:45:30;101081.66;;;18.38;72.76
50550;BME280;36505;52.512;13.460;2022-08-21T05:47:56;101064.53;;;18.31;72.77
50550;BME280;36505;52.512;13.460;2022-08-21T05:50:21;101074.72;;;18.40;72.31
50550;BME280;36505;52.512;13.460;2022-08-21T05:52:48;101077.72;;;18.44;72.67
50550;BME280;36505;52.512;13.460;2022-08-21T05:55:13;101082.16;;;18.45;72.54
50550;BME280;36505;52.512;13.460;2022-08-21T05:57:39;101068.34;;;18.40;72.72
50550;BME280;36505;52.512;13.460;2022-08-21T06:00:07;101081.88;;;18.46;72.28
50550;BME280;36505;52.512;13.460;2022-08-21T06:02:35;101081.59;;;18.48;72.18
50550;BME280;36505;52.512;13.460;2022-08-21T06:05:00;101081.88;;;18.46;71.95
50550;BME280;36505;52.512;13.460;2022-08-21T06:07:26;101085.97;;;18.54;71.89
50550;BME280;36505;52.512;13.460;2022-08-21T06:09:51;101088.50;;;18.56;72.07
50550;BME280;36505;52.512;13.460;2022-08-21T06:12:17;101083.19;;;18.59;72.07
50550;BME280;36505;52.512;13.460;2022-08-21T06:14:42;101082.31;;;18.64;71.62
50550;BME280;36505;52.512;13.460;2022-08-21T06:17:11;101091.13;;;18.71;71.49
50550;BME280;36505;52.512;13.460;2022-08-21T06:19:37;101085.84;;;18.74;71.00
50550;BME280;36505;52.512;13.460;2022-08-21T06:22:03;101082.75;;;18.81;70.95
50550;BME280;36505;52.512;13.460;2022-08-21T06:24:29;101088.22;;;18.86;70.77
50550;BME280;36505;52.512;13.460;2022-08-21T06:26:55;101095.94;;;18.94;70.48
50550;BME280;36505;52.512;13.460;2022-08-21T06:29:21;101087.00;;;18.97;70.49
50550;BME280;36505;52.512;13.460;2022-08-21T06:31:48;101098.09;;;19.02;69.95
50550;BME280;36505;52.512;13.460;2022-08-21T06:34:14;101094.97;;;19.09;69.77
50550;BME280;36505;52.512;13.460;2022-08-21T06:36:40;101093.50;;;19.16;69.12
50550;BME280;36505;52.512;13.460;2022-08-21T06:39:06;101091.78;;;19.20;68.78
50550;BME280;36505;52.512;13.460;2022-08-21T06:41:32;101089.75;;;19.31;68.40
50550;BME280;36505;52.512;13.460;2022-08-21T06:43:58;101087.66;;;19.42;68.29
50550;BME280;36505;52.512;13.460;2022-08-21T06:46:25;101091.19;;;19.52;67.89
50550;BME280;36505;52.512;13.460;2022-08-21T06:48:50;101079.13;;;19.62;67.09
50550;BME280;36505;52.512;13.460;2022-08-21T06:51:16;101081.19;;;19.75;66.82
50550;BME280;36505;52.512;13.460;2022-08-21T06:53:43;101088.22;;;19.91;66.34
50550;BME280;36505;52.512;13.460;2022-08-21T06:56:08;101086.84;;;20.07;65.71
50550;BME280;36505;52.512;13.460;2022-08-21T06:58:34;101092.81;;;20.20;65.16
50550;BME280;36505;52.512;13.460;2022-08-21T07:00:59;101087.63;;;20.32;64.88
50550;BME280;36505;52.512;13.460;2022-08-21T07:03:28;101090.41;;;20.50;64.32
50550;BME280;36505;52.512;13.460;2022-08-21T07:05:54;101083.69;;;20.70;63.72
50550;BME280;36505;52.512;13.460;2022-08-21T07:08:20;101089.88;;;21.00;62.20
50550;BME280;36505;52.512;13.460;2022-08-21T07:10:46;101081.06;;;21.25;61.77
50550;BME280;36505;52.512;13.460;2022-08-21T07:13:16;101084.91;;;21.56;60.90
50550;BME280;36505;52.512;13.460;2022-08-21T07:15:42;101083.66;;;21.90;59.51
50550;BME280;36505;52.512;13.460;2022-08-21T07:18:07;101086.44;;;22.17;58.22
50550;BME280;36505;52.512;13.460;2022-08-21T07:20:33;101073.16;;;22.36;56.80
50550;BME280;36505;52.512;13.460;2022-08-21T07:23:02;101081.50;;;22.59;56.11
50550;BME280;36505;52.512;13.460;2022-08-21T07:25:28;101078.28;;;22.79;56.28
50550;BME280;36505;52.512;13.460;2022-08-21T07:27:53;101076.91;;;22.99;54.74
50550;BME280;36505;52.512;13.460;2022-08-21T07:30:19;101086.81;;;23.05;55.30
50550;BME280;36505;52.512;13.460;2022-08-21T07:32:44;101085.69;;;23.14;55.02
50550;BME280;36505;52.512;13.460;2022-08-21T07:35:10;101075.75;;;23.31;54.30
50550;BME280;36505;52.512;13.460;2022-08-21T07:37:35;101072.88;;;23.44;53.54
50550;BME280;36505;52.512;13.460;2022-08-21T07:40:01;101076.56;;;23.62;52.19
50550;BME280;36505;52.512;13.460;2022-08-21T07:42:26;101070.84;;;23.76;51.50
50550;BME280;36505;52.512;13.460;2022-08-21T07:44:51;101062.19;;;23.94;51.13
50550;BME280;36505;52.512;13.460;2022-08-21T07:47:17;101069.28;;;24.18;50.58
50550;BME280;36505;52.512;13.460;2022-08-21T07:49:42;101066.69;;;24.30;50.16
50550;BME280;36505;52.512;13.460;2022-08-21T07:52:08;101071.47;;;24.38;49.57
50550;BME280;36505;52.512;13.460;2022-08-21T07:54:33;101058.44;;;24.59;48.77
50550;BME280;36505;52.512;13.460;2022-08-21T07:56:58;101071.44;;;24.64;48.78
50550;BME280;36505;52.512;13.460;2022-08-21T07:59:24;101064.88;;;24.68;46.93
50550;BME280;36505;52.512;13.460;2022-08-21T08:01:49;101069.47;;;24.73;47.40
50550;BME280;36505;52.512;13.460;2022-08-21T08:04:15;101072.28;;;24.90;47.36
50550;BME280;36505;52.512;13.460;2022-08-21T08:06:41;101062.53;;;24.88;46.59
50550;BME280;36505;52.512;13.460;2022-08-21T08:09:06;101074.69;;;25.17;46.42
50550;BME280;36505;52.512;13.460;2022-08-21T08:11:31;101068.88;;;25.31;45.69
50550;BME280;36505;52.512;13.460;2022-08-21T08:13:57;101073.72;;;25.51;45.03
50550;BME280;36505;52.512;13.460;2022-08-21T08:16:24;101075.34;;;25.52;43.86
50550;BME280;36505;52.512;13.460;2022-08-21T08:18:50;101073.34;;;25.70;43.84
50550;BME280;36505;52.512;13.460;2022-08-21T08:21:16;101047.31;;;25.90;43.33
50550;BME280;36505;52.512;13.460;2022-08-21T08:23:44;101062.25;;;26.24;42.99
50550;BME280;36505;52.512;13.460;2022-08-21T08:26:10;101064.84;;;26.70;42.25
50550;BME280;36505;52.512;13.460;2022-08-21T08:28:35;101075.69;;;27.26;41.22
50550;BME280;36505;52.512;13.460;2022-08-21T08:31:01;101072.69;;;27.91;39.87
50550;BME280;36505;52.512;13.460;2022-08-21T08:33:26;101065.22;;;28.76;38.65
50550;BME280;36505;52.512;13.460;2022-08-21T08:35:52;101069.00;;;28.95;37.65
50550;BME280;36505;52.512;13.460;2022-08-21T08:38:20;101074.72;;;29.58;36.81
50550;BME280;36505;52.512;13.460;2022-08-21T08:43:35;101071.13;;;29.77;35.93
50550;BME280;36505;52.512;13.460;2022-08-21T08:46:04;101063.44;;;29.58;36.01
50550;BME280;36505;52.512;13.460;2022-08-21T08:50:57;101066.13;;;28.80;37.38
50550;BME280;36505;52.512;13.460;2022-08-21T08:53:35;101067.13;;;28.59;37.67
50550;BME280;36505;52.512;13.460;2022-08-21T08:56:06;101073.03;;;28.14;38.42
50550;BME280;36505;52.512;13.460;2022-08-21T08:58:36;101066.38;;;27.82;38.17
50550;BME280;36505;52.512;13.460;2022-08-21T09:01:06;101060.38;;;27.47;38.57
50550;BME280;36505;52.512;13.460;2022-08-21T09:03:36;101061.94;;;27.12;39.80
50550;BME280;36505;52.512;13.460;2022-08-21T09:11:31;101057.16;;;26.26;41.77
50550;BME280;36505;52.512;13.460;2022-08-21T09:16:59;101052.75;;;25.87;40.56
50550;BME280;36505;52.512;13.460;2022-08-21T09:22:33;101051.44;;;25.55;42.04
50550;BME280;36505;52.512;13.460;2022-08-21T09:27:41;101051.78;;;25.15;42.25
50550;BME280;36505;52.512;13.460;2022-08-21T09:30:08;101052.97;;;24.89;43.11
50550;BME280;36505;52.512;13.460;2022-08-21T09:32:35;101065.50;;;24.83;43.67
50550;BME280;36505;52.512;13.460;2022-08-21T09:37:35;101056.66;;;24.55;42.74
50550;BME280;36505;52.512;13.460;2022-08-21T09:43:01;101055.00;;;24.45;44.05
50550;BME280;36505;52.512;13.460;2022-08-21T09:45:27;101055.19;;;24.40;44.45
50550;BME280;36505;52.512;13.460;2022-08-21T09:47:53;101056.00;;;24.40;44.53
50550;BME280;36505;52.512;13.460;2022-08-21T09:50:25;101052.06;;;24.42;44.77
50550;BME280;36505;52.512;13.460;2022-08-21T09:52:56;101053.72;;;24.43;44.30
50550;BME280;36505;52.512;13.460;2022-08-21T09:55:31;101061.91;;;24.39;44.78
50550;BME280;36505;52.512;13.460;2022-08-21T09:58:17;101057.81;;;24.45;44.37
50550;BME280;36505;52.512;13.460;2022-08-21T10:00:43;101051.56;;;24.48;43.83
50550;BME280;36505;52.512;13.460;2022-08-21T10:03:17;101052.53;;;24.52;44.07
50550;BME280;36505;52.512;13.460;2022-08-21T10:08:19;101048.22;;;24.72;43.33
50550;BME280;36505;52.512;13.460;2022-08-21T10:10:44;101057.25;;;24.86;43.18
50550;BME280;36505;52.512;13.460;2022-08-21T10:16:49;101059.69;;;25.05;43.40
50550;BME280;36505;52.512;13.460;2022-08-21T10:19:17;101060.31;;;25.19;42.81
50550;BME280;36505;52.512;13.460;2022-08-21T10:22:01;101061.16;;;25.19;42.80
50550;BME280;36505;52.512;13.460;2022-08-21T10:30:25;101058.22;;;25.07;42.31
50550;BME280;36505;52.512;13.460;2022-08-21T10:36:14;101064.00;;;25.11;40.96
50550;BME280;36505;52.512;13.460;2022-08-21T10:41:37;101060.84;;;25.12;40.71
50550;BME280;36505;52.512;13.460;2022-08-21T10:57:21;101062.66;;;25.55;40.17
50550;BME280;36505;52.512;13.460;2022-08-21T11:00:04;101056.41;;;25.58;40.76
50550;BME280;36505;52.512;13.460;2022-08-21T11:02:37;101057.25;;;25.59;40.34
50550;BME280;36505;52.512;13.460;2022-08-21T11:05:14;101059.72;;;25.51;40.72
50550;BME280;36505;52.512;13.460;2022-08-21T11:08:07;101065.78;;;25.53;41.02
50550;BME280;36505;52.512;13.460;2022-08-21T11:10:50;101056.22;;;25.54;40.52
50550;BME280;36505;52.512;13.460;2022-08-21T11:13:24;101058.84;;;25.60;41.19
50550;BME280;36505;52.512;13.460;2022-08-21T11:16:00;101060.25;;;25.74;40.14
50550;BME280;36505;52.512;13.460;2022-08-21T11:18:47;101057.91;;;25.85;39.48
50550;BME280;36505;52.512;13.460;2022-08-21T11:21:37;101056.06;;;25.89;38.52
50550;BME280;36505;52.512;13.460;2022-08-21T11:24:33;101054.63;;;25.83;38.28
50550;BME280;36505;52.512;13.460;2022-08-21T11:29:52;101054.41;;;25.88;38.29
50550;BME280;36505;52.512;13.460;2022-08-21T11:32:29;101040.25;;;25.84;38.08
50550;BME280;36505;52.512;13.460;2022-08-21T11:45:39;101050.44;;;25.89;37.42
50550;BME280;36505;52.512;13.460;2022-08-21T11:51:06;101039.75;;;25.82;34.19
50550;BME280;36505;52.512;13.460;2022-08-21T11:53:38;101038.72;;;25.87;35.22
50550;BME280;36505;52.512;13.460;2022-08-21T11:56:21;101048.13;;;25.91;34.45
50550;BME280;36505;52.512;13.460;2022-08-21T11:58:52;101046.97;;;25.92;34.02
50550;BME280;36505;52.512;13.460;2022-08-21T12:01:23;101039.75;;;25.82;33.77
50550;BME280;36505;52.512;13.460;2022-08-21T12:03:56;101040.03;;;25.89;33.82
50550;BME280;36505;52.512;13.460;2022-08-21T12:09:06;101039.72;;;25.91;33.26
50550;BME280;36505;52.512;13.460;2022-08-21T12:11:46;101034.97;;;25.83;33.70
50550;BME280;36505;52.512;13.460;2022-08-21T12:14:15;101036.19;;;25.73;34.06
50550;BME280;36505;52.512;13.460;2022-08-21T12:16:47;101033.25;;;25.70;34.51
50550;BME280;36505;52.512;13.460;2022-08-21T12:21:58;101023.34;;;25.72;34.21
50550;BME280;36505;52.512;13.460;2022-08-21T12:26:59;101003.63;;;25.51;33.36
50550;BME280;36505;52.512;13.460;2022-08-21T12:29:27;100995.41;;;25.46;32.49
50550;BME280;36505;52.512;13.460;2022-08-21T12:32:02;101022.75;;;25.58;33.23
50550;BME280;36505;52.512;13.460;2022-08-21T12:34:45;101016.78;;;25.60;33.75
50550;BME280;36505;52.512;13.460;2022-08-21T12:37:37;101004.25;;;25.57;33.63
50550;BME280;36505;52.512;13.460;2022-08-21T12:40:11;101004.75;;;25.59;32.88
50550;BME280;36505;52.512;13.460;2022-08-21T12:42:44;101017.78;;;25.64;33.05
50550;BME280;36505;52.512;13.460;2022-08-21T12:45:18;101013.81;;;25.65;33.78
50550;BME280;36505;52.512;13.460;2022-08-21T12:47:51;101015.78;;;25.64;34.13
50550;BME280;36505;52.512;13.460;2022-08-21T12:50:38;101006.56;;;25.64;34.54
50550;BME280;36505;52.512;13.460;2022-08-21T12:53:10;101010.31;;;25.68;34.75
50550;BME280;36505;52.512;13.460;2022-08-21T12:55:42;101000.47;;;25.53;34.18
50550;BME280;36505;52.512;13.460;2022-08-21T12:58:20;101016.47;;;25.52;36.12
50550;BME280;36505;52.512;13.460;2022-08-21T13:00:59;101004.50;;;25.43;35.59
50550;BME280;36505;52.512;13.460;2022-08-21T13:03:26;101006.47;;;25.43;35.94
50550;BME280;36505;52.512;13.460;2022-08-21T13:05:53;101007.00;;;25.36;35.61
50550;BME280;36505;52.512;13.460;2022-08-21T13:08:20;101004.72;;;25.30;35.61
50550;BME280;36505;52.512;13.460;2022-08-21T13:10:57;101011.16;;;25.30;34.53
50550;BME280;36505;52.512;13.460;2022-08-21T13:13:25;101008.41;;;25.22;35.17
50550;BME280;36505;52.512;13.460;2022-08-21T13:15:57;101008.75;;;25.11;35.39
50550;BME280;36505;52.512;13.460;2022-08-21T13:18:28;101000.88;;;25.05;35.16
50550;BME280;36505;52.512;13.460;2022-08-21T13:21:11;101006.13;;;25.06;36.50
50550;BME280;36505;52.512;13.460;2022-08-21T13:23:37;101007.66;;;25.04;35.82
50550;BME280;36505;52.512;13.460;2022-08-21T13:26:15;100991.84;;;24.91;36.50
50550;BME280;36505;52.512;13.460;2022-08-21T13:28:41;100984.94;;;24.88;36.34
50550;BME280;36505;52.512;13.460;2022-08-21T13:31:10;100963.03;;;24.82;36.42
50550;BME280;36505;52.512;13.460;2022-08-21T13:33:37;101005.47;;;25.09;37.21
50550;BME280;36505;52.512;13.460;2022-08-21T13:36:10;101015.19;;;25.12;36.96
50550;BME280;36505;52.512;13.460;2022-08-21T13:38:38;101003.34;;;25.06;35.51
50550;BME280;36505;52.512;13.460;2022-08-21T13:41:16;100980.66;;;24.91;35.20
50550;BME280;36505;52.512;13.460;2022-08-21T13:43:49;100995.63;;;25.03;36.49
50550;BME280;36505;52.512;13.460;2022-08-21T13:46:16;101005.31;;;25.06;36.28
50550;BME280;36505;52.512;13.460;2022-08-21T13:48:43;100997.59;;;25.03;36.84
50550;BME280;36505;52.512;13.460;2022-08-21T13:51:09;100990.03;;;24.95;37.54
50550;BME280;36505;52.512;13.460;2022-08-21T13:56:02;101006.34;;;24.93;36.67
50550;BME280;36505;52.512;13.460;2022-08-21T13:58:32;101004.88;;;24.87;37.51
50550;BME280;36505;52.512;13.460;2022-08-21T14:00:59;101005.06;;;24.82;37.77
50550;BME280;36505;52.512;13.460;2022-08-21T14:03:42;101006.03;;;24.77;38.11
50550;BME280;36505;52.512;13.460;2022-08-21T14:06:20;101002.94;;;24.70;38.10
50550;BME280;36505;52.512;13.460;2022-08-21T14:08:50;101002.63;;;24.63;38.41
50550;BME280;36505;52.512;13.460;2022-08-21T14:11:16;100994.06;;;24.51;38.64
50550;BME280;36505;52.512;13.460;2022-08-21T14:13:56;101006.78;;;24.48;39.28
50550;BME280;36505;52.512;13.460;2022-08-21T14:16:28;101000.84;;;24.41;39.11
50550;BME280;36505;52.512;13.460;2022-08-21T14:21:35;100988.19;;;24.35;39.23
50550;BME280;36505;52.512;13.460;2022-08-21T14:26:29;100989.84;;;24.36;40.33
50550;BME280;36505;52.512;13.460;2022-08-21T14:28:58;100985.72;;;24.25;40.77
50550;BME280;36505;52.512;13.460;2022-08-21T14:31:29;100963.47;;;24.11;40.53
50550;BME280;36505;52.512;13.460;2022-08-21T14:33:55;100966.75;;;24.13;40.28
50550;BME280;36505;52.512;13.460;2022-08-21T14:36:20;100961.00;;;24.01;41.17
50550;BME280;36505;52.512;13.460;2022-08-21T14:38:46;100973.81;;;24.11;40.96
50550;BME280;36505;52.512;13.460;2022-08-21T14:41:23;100981.75;;;24.09;40.83
50550;BME280;36505;52.512;13.460;2022-08-21T14:43:51;100983.38;;;24.10;41.23
50550;BME280;36505;52.512;13.460;2022-08-21T14:46:22;100991.09;;;24.04;41.08